N28VS KLUK-KJAX
Flight info
| Callsign | N28VS |
|---|---|
| Flight time | N/A |
| Altitude | 41000 |
| Route | KENLN VXV FINNE OHDEA2 |
| Aircraft | C25C/M-SDE2FGRWY/HB1 |
Departure
| Time | 2026-04-20 19:38 |
|---|---|
| Airport | Cincinnati Municipal Airport Lunken Field (KLUK) |
Arrival
| Time | N/A |
|---|---|
| Airport | Jacksonville International Airport (KJAX) |
| Time | Latitude | Longitude | Altitude | Speed | Heading |
|---|---|---|---|---|---|
| 2026-04-20 19:11 | 39.10553 | -84.42641 | 484 ft | 0 kts | 299° |
| 2026-04-20 19:30 | 39.10547 | -84.42627 | 478 ft | 1 kts | 298° |
| 2026-04-20 19:31 | 39.10545 | -84.42613 | 481 ft | 2 kts | 263° |
| 2026-04-20 19:31 | 39.10546 | -84.42606 | 482 ft | 0 kts | 249° |
| 2026-04-20 19:33 | 39.10543 | -84.42616 | 481 ft | 6 kts | 246° |
| 2026-04-20 19:33 | 39.10475 | -84.42632 | 484 ft | 17 kts | 153° |
| 2026-04-20 19:33 | 39.10415 | -84.42678 | 482 ft | 14 kts | 243° |
| 2026-04-20 19:33 | 39.10333 | -84.42733 | 485 ft | 19 kts | 156° |
| 2026-04-20 19:34 | 39.10197 | -84.42646 | 485 ft | 24 kts | 153° |
| 2026-04-20 19:34 | 39.10034 | -84.42543 | 485 ft | 26 kts | 153° |
| 2026-04-20 19:34 | 39.09875 | -84.42442 | 485 ft | 25 kts | 154° |
| 2026-04-20 19:34 | 39.09724 | -84.42344 | 482 ft | 24 kts | 154° |
| 2026-04-20 19:35 | 39.09577 | -84.42251 | 480 ft | 23 kts | 153° |
| 2026-04-20 19:35 | 39.09436 | -84.42159 | 484 ft | 22 kts | 149° |
| 2026-04-20 19:35 | 39.09352 | -84.42056 | 484 ft | 0 kts | 135° |
| 2026-04-20 19:36 | 39.09342 | -84.42043 | 484 ft | 6 kts | 135° |
| 2026-04-20 19:37 | 39.09295 | -84.41974 | 479 ft | 15 kts | 121° |
| 2026-04-20 19:37 | 39.09299 | -84.41935 | 480 ft | 0 kts | 21° |
| 2026-04-20 19:37 | 39.09308 | -84.41931 | 482 ft | 16 kts | 21° |
| 2026-04-20 19:37 | 39.09763 | -84.41711 | 480 ft | 122 kts | 20° |
| 2026-04-20 19:38 | 39.10755 | -84.41223 | 1012 ft | 180 kts | 21° |
| 2026-04-20 19:38 | 39.12036 | -84.40653 | 2277 ft | 210 kts | 17° |
| 2026-04-20 19:38 | 39.13453 | -84.40104 | 3644 ft | 214 kts | 16° |
| 2026-04-20 19:38 | 39.14937 | -84.39485 | 4626 ft | 235 kts | 19° |
| 2026-04-20 19:39 | 39.16565 | -84.38742 | 5423 ft | 261 kts | 21° |
| 2026-04-20 19:39 | 39.17895 | -84.37228 | 6745 ft | 262 kts | 60° |
| 2026-04-20 19:39 | 39.18245 | -84.34904 | 7893 ft | 276 kts | 93° |
| 2026-04-20 19:39 | 39.17514 | -84.32570 | 8898 ft | 293 kts | 126° |
| 2026-04-20 19:40 | 39.15852 | -84.30988 | 9852 ft | 306 kts | 161° |
| 2026-04-20 19:40 | 39.13736 | -84.30531 | 10771 ft | 313 kts | 180° |
| 2026-04-20 19:40 | 39.11543 | -84.30413 | 11766 ft | 317 kts | 183° |
| 2026-04-20 19:40 | 39.09322 | -84.30358 | 12733 ft | 323 kts | 184° |
| 2026-04-20 19:41 | 39.07061 | -84.30308 | 13540 ft | 335 kts | 184° |
| 2026-04-20 19:41 | 39.04719 | -84.30416 | 14326 ft | 337 kts | 197° |
| 2026-04-20 19:41 | 39.02495 | -84.31332 | 15067 ft | 334 kts | 208° |
| 2026-04-20 19:41 | 39.00297 | -84.32407 | 15870 ft | 342 kts | 207° |
| 2026-04-20 19:42 | 38.97983 | -84.33293 | 16653 ft | 352 kts | 201° |
| 2026-04-20 19:42 | 38.95577 | -84.33996 | 17456 ft | 357 kts | 200° |
| 2026-04-20 19:42 | 38.93151 | -84.34774 | 18237 ft | 361 kts | 202° |
| 2026-04-20 19:42 | 38.90747 | -84.35621 | 18993 ft | 366 kts | 204° |
| 2026-04-20 19:43 | 38.88271 | -84.36486 | 19740 ft | 371 kts | 203° |
| 2026-04-20 19:43 | 38.85764 | -84.37324 | 20480 ft | 376 kts | 202° |
| 2026-04-20 19:43 | 38.83215 | -84.38176 | 21229 ft | 381 kts | 203° |
| 2026-04-20 19:43 | 38.80639 | -84.39045 | 21996 ft | 385 kts | 203° |
| 2026-04-20 19:44 | 38.78025 | -84.39938 | 22755 ft | 390 kts | 203° |
| 2026-04-20 19:44 | 38.75378 | -84.40831 | 23499 ft | 395 kts | 203° |
| 2026-04-20 19:44 | 38.72702 | -84.41728 | 24165 ft | 401 kts | 203° |
| 2026-04-20 19:44 | 38.70024 | -84.42632 | 24740 ft | 405 kts | 203° |
| 2026-04-20 19:45 | 38.67278 | -84.43556 | 25284 ft | 410 kts | 203° |
| 2026-04-20 19:45 | 38.64466 | -84.44505 | 25823 ft | 414 kts | 203° |
| 2026-04-20 19:45 | 38.61697 | -84.45431 | 26330 ft | 419 kts | 203° |
| 2026-04-20 19:45 | 38.58827 | -84.46398 | 26841 ft | 423 kts | 203° |
| 2026-04-20 19:46 | 38.55968 | -84.47357 | 27331 ft | 427 kts | 203° |
| 2026-04-20 19:46 | 38.53133 | -84.48305 | 27890 ft | 428 kts | 203° |
| 2026-04-20 19:46 | 38.50253 | -84.49264 | 28511 ft | 429 kts | 202° |
| 2026-04-20 19:46 | 38.47237 | -84.49877 | 29132 ft | 437 kts | 192° |
| 2026-04-20 19:47 | 38.44214 | -84.50004 | 29746 ft | 444 kts | 184° |
| 2026-04-20 19:47 | 38.41118 | -84.49624 | 30368 ft | 449 kts | 175° |
| 2026-04-20 19:47 | 38.38045 | -84.48851 | 30893 ft | 449 kts | 173° |
| 2026-04-20 19:47 | 38.34976 | -84.48098 | 31405 ft | 448 kts | 173° |
| 2026-04-20 19:48 | 38.31911 | -84.47348 | 31908 ft | 448 kts | 173° |
| 2026-04-20 19:48 | 38.28858 | -84.46590 | 32391 ft | 447 kts | 173° |
| 2026-04-20 19:48 | 38.25804 | -84.45831 | 32870 ft | 447 kts | 173° |
| 2026-04-20 19:48 | 38.22752 | -84.45074 | 33335 ft | 446 kts | 173° |
| 2026-04-20 19:49 | 38.19703 | -84.44326 | 33784 ft | 446 kts | 173° |
| 2026-04-20 19:49 | 38.16652 | -84.43573 | 34224 ft | 445 kts | 173° |
| 2026-04-20 19:49 | 38.13615 | -84.42823 | 34610 ft | 445 kts | 173° |
| 2026-04-20 19:49 | 38.10576 | -84.42074 | 34996 ft | 444 kts | 173° |
| 2026-04-20 19:50 | 38.07546 | -84.41327 | 35384 ft | 442 kts | 173° |
| 2026-04-20 19:50 | 38.04531 | -84.40588 | 35773 ft | 441 kts | 173° |
| 2026-04-20 19:50 | 38.01555 | -84.39856 | 36170 ft | 440 kts | 174° |
| 2026-04-20 19:50 | 37.98551 | -84.39118 | 36572 ft | 439 kts | 174° |
| 2026-04-20 19:51 | 37.95559 | -84.38385 | 36981 ft | 437 kts | 174° |
| 2026-04-20 19:51 | 37.92572 | -84.37652 | 37388 ft | 436 kts | 174° |
| 2026-04-20 19:51 | 37.89595 | -84.36924 | 37804 ft | 435 kts | 175° |
| 2026-04-20 19:51 | 37.86628 | -84.36197 | 38232 ft | 433 kts | 175° |
| 2026-04-20 19:52 | 37.83672 | -84.35474 | 38665 ft | 432 kts | 175° |
| 2026-04-20 19:52 | 37.80723 | -84.34755 | 39069 ft | 431 kts | 175° |
| 2026-04-20 19:52 | 37.77782 | -84.34036 | 39389 ft | 429 kts | 175° |
| 2026-04-20 19:52 | 37.74849 | -84.33320 | 39692 ft | 429 kts | 175° |
| 2026-04-20 19:53 | 37.71927 | -84.32610 | 39991 ft | 428 kts | 176° |
| 2026-04-20 19:53 | 37.69009 | -84.31899 | 40292 ft | 427 kts | 176° |
| 2026-04-20 19:53 | 37.66094 | -84.31188 | 40572 ft | 426 kts | 176° |
| 2026-04-20 19:53 | 37.63170 | -84.30480 | 40736 ft | 430 kts | 176° |
| 2026-04-20 19:54 | 37.60216 | -84.29766 | 40850 ft | 434 kts | 176° |
| 2026-04-20 19:54 | 37.57242 | -84.29042 | 40971 ft | 437 kts | 176° |
| 2026-04-20 19:54 | 37.54281 | -84.28322 | 41084 ft | 440 kts | 175° |
| 2026-04-20 19:54 | 37.51225 | -84.27582 | 41204 ft | 443 kts | 176° |
| 2026-04-20 19:55 | 37.48191 | -84.26848 | 41311 ft | 446 kts | 176° |
| 2026-04-20 19:55 | 37.42023 | -84.25359 | 41337 ft | 456 kts | 175° |
| 2026-04-20 19:56 | 37.36807 | -84.24098 | 41352 ft | 462 kts | 175° |
| 2026-04-20 19:56 | 37.29352 | -84.22301 | 41340 ft | 471 kts | 175° |
| 2026-04-20 19:57 | 37.22913 | -84.20750 | 41341 ft | 476 kts | 175° |
| 2026-04-20 19:57 | 37.16371 | -84.19179 | 41340 ft | 481 kts | 175° |
| 2026-04-20 19:58 | 37.09764 | -84.17595 | 41343 ft | 484 kts | 175° |
| 2026-04-20 19:58 | 37.06446 | -84.16800 | 41339 ft | 486 kts | 175° |